sensor_id;sensor_type;location;lat;lon;timestamp;P1;durP1;ratioP1;P2;durP2;ratioP2
77602;SDS011;66771;52.434;17.056;2023-03-25T00:00:06;12.00;;;7.90;;
77602;SDS011;66771;52.434;17.056;2023-03-25T00:03:02;12.70;;;8.50;;
77602;SDS011;66771;52.434;17.056;2023-03-25T00:05:30;15.80;;;9.00;;
77602;SDS011;66771;52.434;17.056;2023-03-25T00:07:56;15.80;;;9.40;;
77602;SDS011;66771;52.434;17.056;2023-03-25T00:10:23;17.20;;;8.80;;
77602;SDS011;66771;52.434;17.056;2023-03-25T00:12:50;12.10;;;7.70;;
77602;SDS011;66771;52.434;17.056;2023-03-25T00:15:17;12.10;;;7.80;;
77602;SDS011;66771;52.434;17.056;2023-03-25T00:17:44;13.60;;;8.60;;
77602;SDS011;66771;52.434;17.056;2023-03-25T00:20:11;14.60;;;8.80;;
77602;SDS011;66771;52.434;17.056;2023-03-25T00:22:39;13.60;;;8.50;;
77602;SDS011;66771;52.434;17.056;2023-03-25T00:25:08;12.20;;;7.20;;
77602;SDS011;66771;52.434;17.056;2023-03-25T00:27:38;13.80;;;8.90;;
77602;SDS011;66771;52.434;17.056;2023-03-25T00:30:05;14.00;;;7.90;;
77602;SDS011;66771;52.434;17.056;2023-03-25T00:32:33;10.50;;;7.60;;
77602;SDS011;66771;52.434;17.056;2023-03-25T00:35:00;14.50;;;8.40;;
77602;SDS011;66771;52.434;17.056;2023-03-25T00:37:27;12.80;;;8.60;;
77602;SDS011;66771;52.434;17.056;2023-03-25T00:39:55;11.10;;;7.10;;
77602;SDS011;66771;52.434;17.056;2023-03-25T00:42:22;14.60;;;7.80;;
77602;SDS011;66771;52.434;17.056;2023-03-25T00:44:51;10.00;;;7.00;;
77602;SDS011;66771;52.434;17.056;2023-03-25T00:47:19;12.20;;;8.60;;
77602;SDS011;66771;52.434;17.056;2023-03-25T00:49:47;12.90;;;7.40;;
77602;SDS011;66771;52.434;17.056;2023-03-25T00:52:15;12.90;;;8.10;;
77602;SDS011;66771;52.434;17.056;2023-03-25T00:54:42;13.40;;;8.10;;
77602;SDS011;66771;52.434;17.056;2023-03-25T00:57:09;10.60;;;6.90;;
77602;SDS011;66771;52.434;17.056;2023-03-25T00:59:35;12.40;;;7.30;;
77602;SDS011;66771;52.434;17.056;2023-03-25T01:02:02;13.30;;;7.30;;
77602;SDS011;66771;52.434;17.056;2023-03-25T01:04:32;13.70;;;7.20;;
77602;SDS011;66771;52.434;17.056;2023-03-25T01:07:00;12.20;;;7.70;;
77602;SDS011;66771;52.434;17.056;2023-03-25T01:09:28;14.90;;;6.90;;
77602;SDS011;66771;52.434;17.056;2023-03-25T01:11:55;11.70;;;6.90;;
77602;SDS011;66771;52.434;17.056;2023-03-25T01:14:22;11.00;;;6.70;;
77602;SDS011;66771;52.434;17.056;2023-03-25T01:16:52;9.50;;;6.90;;
77602;SDS011;66771;52.434;17.056;2023-03-25T01:19:20;10.80;;;7.30;;
77602;SDS011;66771;52.434;17.056;2023-03-25T01:21:48;10.90;;;6.60;;
77602;SDS011;66771;52.434;17.056;2023-03-25T01:24:16;13.20;;;7.50;;
77602;SDS011;66771;52.434;17.056;2023-03-25T01:26:43;13.30;;;7.10;;
77602;SDS011;66771;52.434;17.056;2023-03-25T01:29:14;12.60;;;7.40;;
77602;SDS011;66771;52.434;17.056;2023-03-25T01:31:43;11.70;;;7.10;;
77602;SDS011;66771;52.434;17.056;2023-03-25T01:34:10;13.00;;;6.90;;
77602;SDS011;66771;52.434;17.056;2023-03-25T01:36:37;11.80;;;6.60;;
77602;SDS011;66771;52.434;17.056;2023-03-25T01:39:06;9.00;;;6.50;;
77602;SDS011;66771;52.434;17.056;2023-03-25T01:41:34;11.30;;;6.70;;
77602;SDS011;66771;52.434;17.056;2023-03-25T01:45:02;13.30;;;7.60;;
77602;SDS011;66771;52.434;17.056;2023-03-25T01:46:55;11.50;;;7.30;;
77602;SDS011;66771;52.434;17.056;2023-03-25T01:49:28;13.50;;;8.10;;
77602;SDS011;66771;52.434;17.056;2023-03-25T01:52:00;15.00;;;7.40;;
77602;SDS011;66771;52.434;17.056;2023-03-25T01:54:30;13.00;;;6.90;;
77602;SDS011;66771;52.434;17.056;2023-03-25T01:56:58;10.00;;;6.60;;
77602;SDS011;66771;52.434;17.056;2023-03-25T01:59:25;9.80;;;6.30;;
77602;SDS011;66771;52.434;17.056;2023-03-25T02:01:57;11.70;;;7.30;;
77602;SDS011;66771;52.434;17.056;2023-03-25T02:07:27;11.00;;;7.30;;
77602;SDS011;66771;52.434;17.056;2023-03-25T02:09:58;12.30;;;7.00;;
77602;SDS011;66771;52.434;17.056;2023-03-25T02:12:27;12.60;;;7.90;;
77602;SDS011;66771;52.434;17.056;2023-03-25T02:14:54;12.70;;;8.80;;
77602;SDS011;66771;52.434;17.056;2023-03-25T02:40:46;12.10;;;7.70;;
77602;SDS011;66771;52.434;17.056;2023-03-25T02:43:31;11.70;;;7.60;;
77602;SDS011;66771;52.434;17.056;2023-03-25T02:46:06;10.80;;;7.00;;
77602;SDS011;66771;52.434;17.056;2023-03-25T02:51:19;12.60;;;7.50;;
77602;SDS011;66771;52.434;17.056;2023-03-25T02:53:51;11.00;;;7.20;;
77602;SDS011;66771;52.434;17.056;2023-03-25T02:56:22;12.10;;;7.30;;
77602;SDS011;66771;52.434;17.056;2023-03-25T02:58:52;17.40;;;8.20;;
77602;SDS011;66771;52.434;17.056;2023-03-25T03:01:22;15.50;;;8.50;;
77602;SDS011;66771;52.434;17.056;2023-03-25T03:03:55;14.00;;;7.60;;
77602;SDS011;66771;52.434;17.056;2023-03-25T03:06:22;15.30;;;7.50;;
77602;SDS011;66771;52.434;17.056;2023-03-25T03:11:18;12.50;;;7.80;;
77602;SDS011;66771;52.434;17.056;2023-03-25T03:13:57;15.60;;;8.40;;
77602;SDS011;66771;52.434;17.056;2023-03-25T03:22:47;11.90;;;6.80;;
77602;SDS011;66771;52.434;17.056;2023-03-25T03:25:35;11.20;;;6.30;;
77602;SDS011;66771;52.434;17.056;2023-03-25T03:28:22;13.60;;;7.90;;
77602;SDS011;66771;52.434;17.056;2023-03-25T03:31:06;9.70;;;6.10;;
77602;SDS011;66771;52.434;17.056;2023-03-25T03:33:55;13.90;;;7.80;;
77602;SDS011;66771;52.434;17.056;2023-03-25T03:36:30;11.50;;;6.30;;
77602;SDS011;66771;52.434;17.056;2023-03-25T03:39:08;10.40;;;5.80;;
77602;SDS011;66771;52.434;17.056;2023-03-25T03:41:42;13.50;;;6.40;;
77602;SDS011;66771;52.434;17.056;2023-03-25T03:44:13;10.00;;;6.40;;
77602;SDS011;66771;52.434;17.056;2023-03-25T03:50:08;11.00;;;6.40;;
77602;SDS011;66771;52.434;17.056;2023-03-25T03:52:21;10.40;;;6.20;;
77602;SDS011;66771;52.434;17.056;2023-03-25T03:55:03;12.30;;;7.50;;
77602;SDS011;66771;52.434;17.056;2023-03-25T03:57:38;10.70;;;6.20;;
77602;SDS011;66771;52.434;17.056;2023-03-25T04:02:51;13.90;;;6.80;;
77602;SDS011;66771;52.434;17.056;2023-03-25T04:05:29;12.80;;;6.90;;
77602;SDS011;66771;52.434;17.056;2023-03-25T04:08:02;10.20;;;6.80;;
77602;SDS011;66771;52.434;17.056;2023-03-25T04:13:25;9.40;;;6.60;;
77602;SDS011;66771;52.434;17.056;2023-03-25T04:15:58;14.80;;;6.20;;
77602;SDS011;66771;52.434;17.056;2023-03-25T04:18:25;10.80;;;6.20;;
77602;SDS011;66771;52.434;17.056;2023-03-25T04:20:54;10.90;;;6.60;;
77602;SDS011;66771;52.434;17.056;2023-03-25T04:23:21;9.20;;;6.60;;
77602;SDS011;66771;52.434;17.056;2023-03-25T04:25:48;8.40;;;6.00;;
77602;SDS011;66771;52.434;17.056;2023-03-25T04:28:21;12.20;;;6.80;;
77602;SDS011;66771;52.434;17.056;2023-03-25T04:30:49;10.40;;;5.90;;
77602;SDS011;66771;52.434;17.056;2023-03-25T04:33:21;12.10;;;7.00;;
77602;SDS011;66771;52.434;17.056;2023-03-25T04:35:49;9.80;;;6.40;;
77602;SDS011;66771;52.434;17.056;2023-03-25T04:38:17;12.10;;;6.00;;
77602;SDS011;66771;52.434;17.056;2023-03-25T04:40:45;7.90;;;5.60;;
77602;SDS011;66771;52.434;17.056;2023-03-25T04:43:13;8.00;;;5.10;;
77602;SDS011;66771;52.434;17.056;2023-03-25T04:45:41;10.50;;;6.60;;
77602;SDS011;66771;52.434;17.056;2023-03-25T04:48:21;12.10;;;6.60;;
77602;SDS011;66771;52.434;17.056;2023-03-25T04:50:51;11.10;;;6.50;;
77602;SDS011;66771;52.434;17.056;2023-03-25T04:53:18;11.10;;;6.90;;
77602;SDS011;66771;52.434;17.056;2023-03-25T04:55:45;13.10;;;6.10;;
77602;SDS011;66771;52.434;17.056;2023-03-25T04:58:14;8.90;;;6.10;;
77602;SDS011;66771;52.434;17.056;2023-03-25T05:00:41;11.20;;;6.60;;
77602;SDS011;66771;52.434;17.056;2023-03-25T05:03:10;10.40;;;6.80;;
77602;SDS011;66771;52.434;17.056;2023-03-25T05:05:37;11.10;;;7.00;;
77602;SDS011;66771;52.434;17.056;2023-03-25T05:08:04;10.00;;;5.60;;
77602;SDS011;66771;52.434;17.056;2023-03-25T05:10:31;13.00;;;6.70;;
77602;SDS011;66771;52.434;17.056;2023-03-25T05:13:00;11.20;;;7.10;;
77602;SDS011;66771;52.434;17.056;2023-03-25T05:15:29;11.00;;;6.60;;
77602;SDS011;66771;52.434;17.056;2023-03-25T05:18:00;10.70;;;6.40;;
77602;SDS011;66771;52.434;17.056;2023-03-25T05:20:30;9.40;;;6.60;;
77602;SDS011;66771;52.434;17.056;2023-03-25T05:23:00;10.60;;;6.30;;
77602;SDS011;66771;52.434;17.056;2023-03-25T05:25:26;12.30;;;6.10;;
77602;SDS011;66771;52.434;17.056;2023-03-25T05:27:54;12.60;;;6.40;;
77602;SDS011;66771;52.434;17.056;2023-03-25T05:30:21;11.20;;;7.60;;
77602;SDS011;66771;52.434;17.056;2023-03-25T05:32:48;12.50;;;6.30;;
77602;SDS011;66771;52.434;17.056;2023-03-25T05:35:16;8.80;;;6.30;;
77602;SDS011;66771;52.434;17.056;2023-03-25T05:37:44;8.90;;;5.80;;
77602;SDS011;66771;52.434;17.056;2023-03-25T05:40:11;10.90;;;6.00;;
77602;SDS011;66771;52.434;17.056;2023-03-25T05:42:38;9.80;;;5.80;;
77602;SDS011;66771;52.434;17.056;2023-03-25T05:45:12;11.70;;;6.20;;
77602;SDS011;66771;52.434;17.056;2023-03-25T05:47:38;10.50;;;6.10;;
77602;SDS011;66771;52.434;17.056;2023-03-25T05:50:05;9.50;;;6.30;;
77602;SDS011;66771;52.434;17.056;2023-03-25T05:52:33;9.70;;;6.00;;
77602;SDS011;66771;52.434;17.056;2023-03-25T05:55:02;10.50;;;6.60;;
77602;SDS011;66771;52.434;17.056;2023-03-25T05:57:30;9.00;;;5.80;;
77602;SDS011;66771;52.434;17.056;2023-03-25T05:59:57;12.30;;;6.10;;
77602;SDS011;66771;52.434;17.056;2023-03-25T06:02:23;7.80;;;5.40;;
77602;SDS011;66771;52.434;17.056;2023-03-25T06:04:51;13.20;;;5.90;;
77602;SDS011;66771;52.434;17.056;2023-03-25T06:07:18;10.60;;;5.40;;
77602;SDS011;66771;52.434;17.056;2023-03-25T06:09:48;9.10;;;6.40;;
77602;SDS011;66771;52.434;17.056;2023-03-25T06:12:16;10.10;;;6.20;;
77602;SDS011;66771;52.434;17.056;2023-03-25T06:14:45;9.60;;;5.50;;
77602;SDS011;66771;52.434;17.056;2023-03-25T06:17:15;8.30;;;5.20;;
77602;SDS011;66771;52.434;17.056;2023-03-25T06:19:44;11.60;;;4.90;;
77602;SDS011;66771;52.434;17.056;2023-03-25T06:22:11;12.50;;;5.20;;
77602;SDS011;66771;52.434;17.056;2023-03-25T06:24:38;10.90;;;5.10;;
77602;SDS011;66771;52.434;17.056;2023-03-25T06:27:07;7.70;;;4.80;;
77602;SDS011;66771;52.434;17.056;2023-03-25T06:29:37;7.80;;;4.80;;
77602;SDS011;66771;52.434;17.056;2023-03-25T06:32:04;8.90;;;4.60;;
77602;SDS011;66771;52.434;17.056;2023-03-25T06:34:31;8.10;;;4.50;;
77602;SDS011;66771;52.434;17.056;2023-03-25T06:36:58;8.90;;;5.30;;
77602;SDS011;66771;52.434;17.056;2023-03-25T06:39:27;9.60;;;5.70;;
77602;SDS011;66771;52.434;17.056;2023-03-25T06:41:57;9.10;;;5.40;;
77602;SDS011;66771;52.434;17.056;2023-03-25T06:44:44;7.50;;;5.00;;
77602;SDS011;66771;52.434;17.056;2023-03-25T06:47:27;10.10;;;5.00;;
77602;SDS011;66771;52.434;17.056;2023-03-25T06:49:54;8.80;;;4.80;;
77602;SDS011;66771;52.434;17.056;2023-03-25T06:52:21;9.70;;;5.40;;
77602;SDS011;66771;52.434;17.056;2023-03-25T06:54:47;10.20;;;5.90;;
77602;SDS011;66771;52.434;17.056;2023-03-25T06:57:14;9.60;;;4.90;;
77602;SDS011;66771;52.434;17.056;2023-03-25T06:59:41;10.80;;;5.40;;
77602;SDS011;66771;52.434;17.056;2023-03-25T07:02:11;9.00;;;4.80;;
77602;SDS011;66771;52.434;17.056;2023-03-25T07:04:39;7.00;;;4.50;;
77602;SDS011;66771;52.434;17.056;2023-03-25T07:07:07;8.00;;;4.70;;
77602;SDS011;66771;52.434;17.056;2023-03-25T07:09:34;9.10;;;4.70;;
77602;SDS011;66771;52.434;17.056;2023-03-25T07:12:01;8.50;;;4.80;;
77602;SDS011;66771;52.434;17.056;2023-03-25T07:14:28;10.30;;;4.60;;
77602;SDS011;66771;52.434;17.056;2023-03-25T07:16:55;11.00;;;4.60;;
77602;SDS011;66771;52.434;17.056;2023-03-25T07:19:22;9.60;;;4.50;;
77602;SDS011;66771;52.434;17.056;2023-03-25T07:21:49;6.90;;;4.20;;
77602;SDS011;66771;52.434;17.056;2023-03-25T07:24:16;7.30;;;4.10;;
77602;SDS011;66771;52.434;17.056;2023-03-25T07:26:42;7.50;;;4.10;;
77602;SDS011;66771;52.434;17.056;2023-03-25T07:29:10;8.90;;;4.30;;
77602;SDS011;66771;52.434;17.056;2023-03-25T07:31:36;6.20;;;4.10;;
77602;SDS011;66771;52.434;17.056;2023-03-25T07:34:05;10.20;;;3.80;;
77602;SDS011;66771;52.434;17.056;2023-03-25T07:36:33;8.50;;;4.10;;
77602;SDS011;66771;52.434;17.056;2023-03-25T07:39:01;7.40;;;3.50;;
77602;SDS011;66771;52.434;17.056;2023-03-25T07:41:28;10.20;;;4.00;;
77602;SDS011;66771;52.434;17.056;2023-03-25T07:44:08;9.40;;;4.10;;
77602;SDS011;66771;52.434;17.056;2023-03-25T07:46:37;8.50;;;3.60;;
77602;SDS011;66771;52.434;17.056;2023-03-25T07:49:04;7.10;;;3.40;;
77602;SDS011;66771;52.434;17.056;2023-03-25T07:51:30;6.60;;;3.20;;
77602;SDS011;66771;52.434;17.056;2023-03-25T07:54:00;7.10;;;3.90;;
77602;SDS011;66771;52.434;17.056;2023-03-25T07:56:27;6.40;;;3.50;;
77602;SDS011;66771;52.434;17.056;2023-03-25T07:58:54;8.60;;;4.00;;
77602;SDS011;66771;52.434;17.056;2023-03-25T08:01:21;6.80;;;3.80;;
77602;SDS011;66771;52.434;17.056;2023-03-25T08:03:47;7.20;;;3.70;;
77602;SDS011;66771;52.434;17.056;2023-03-25T08:06:15;9.00;;;3.70;;
77602;SDS011;66771;52.434;17.056;2023-03-25T08:08:42;8.10;;;3.80;;
77602;SDS011;66771;52.434;17.056;2023-03-25T08:11:09;11.20;;;4.20;;
77602;SDS011;66771;52.434;17.056;2023-03-25T08:13:37;5.80;;;3.20;;
77602;SDS011;66771;52.434;17.056;2023-03-25T08:16:14;8.00;;;3.50;;
77602;SDS011;66771;52.434;17.056;2023-03-25T08:18:41;7.10;;;3.40;;
77602;SDS011;66771;52.434;17.056;2023-03-25T08:21:10;7.50;;;3.40;;
77602;SDS011;66771;52.434;17.056;2023-03-25T08:23:39;8.70;;;3.30;;
77602;SDS011;66771;52.434;17.056;2023-03-25T08:26:06;4.90;;;3.00;;
77602;SDS011;66771;52.434;17.056;2023-03-25T08:28:33;7.50;;;3.50;;
77602;SDS011;66771;52.434;17.056;2023-03-25T08:31:03;6.60;;;2.90;;
77602;SDS011;66771;52.434;17.056;2023-03-25T08:33:32;6.50;;;3.80;;
77602;SDS011;66771;52.434;17.056;2023-03-25T08:36:00;7.40;;;3.30;;
77602;SDS011;66771;52.434;17.056;2023-03-25T08:38:27;6.20;;;3.40;;
77602;SDS011;66771;52.434;17.056;2023-03-25T08:40:58;8.20;;;3.60;;
77602;SDS011;66771;52.434;17.056;2023-03-25T08:43:25;4.60;;;3.20;;
77602;SDS011;66771;52.434;17.056;2023-03-25T08:45:52;5.30;;;3.30;;
77602;SDS011;66771;52.434;17.056;2023-03-25T08:48:19;7.30;;;3.60;;
77602;SDS011;66771;52.434;17.056;2023-03-25T08:50:46;6.10;;;3.30;;
77602;SDS011;66771;52.434;17.056;2023-03-25T08:53:13;5.30;;;3.20;;
77602;SDS011;66771;52.434;17.056;2023-03-25T08:55:40;8.80;;;3.40;;
77602;SDS011;66771;52.434;17.056;2023-03-25T08:58:07;8.00;;;3.30;;
77602;SDS011;66771;52.434;17.056;2023-03-25T09:00:34;8.10;;;3.10;;
77602;SDS011;66771;52.434;17.056;2023-03-25T09:03:03;6.80;;;2.80;;
77602;SDS011;66771;52.434;17.056;2023-03-25T09:05:31;5.20;;;3.10;;
77602;SDS011;66771;52.434;17.056;2023-03-25T09:07:59;5.50;;;3.00;;
77602;SDS011;66771;52.434;17.056;2023-03-25T09:10:27;5.40;;;2.60;;
77602;SDS011;66771;52.434;17.056;2023-03-25T09:12:54;4.30;;;2.20;;
77602;SDS011;66771;52.434;17.056;2023-03-25T09:15:23;5.90;;;2.30;;
77602;SDS011;66771;52.434;17.056;2023-03-25T09:17:50;6.30;;;2.90;;
77602;SDS011;66771;52.434;17.056;2023-03-25T09:20:17;7.50;;;2.40;;
77602;SDS011;66771;52.434;17.056;2023-03-25T09:22:44;4.10;;;2.70;;
77602;SDS011;66771;52.434;17.056;2023-03-25T09:25:13;5.00;;;2.20;;
77602;SDS011;66771;52.434;17.056;2023-03-25T09:27:40;3.70;;;2.20;;
77602;SDS011;66771;52.434;17.056;2023-03-25T09:30:07;3.70;;;2.20;;
77602;SDS011;66771;52.434;17.056;2023-03-25T09:32:35;11.70;;;3.10;;
77602;SDS011;66771;52.434;17.056;2023-03-25T09:35:03;14.80;;;3.40;;
77602;SDS011;66771;52.434;17.056;2023-03-25T09:37:30;8.10;;;2.80;;
77602;SDS011;66771;52.434;17.056;2023-03-25T09:39:57;5.20;;;2.20;;
77602;SDS011;66771;52.434;17.056;2023-03-25T09:56:58;4.70;;;2.10;;
77602;SDS011;66771;52.434;17.056;2023-03-25T09:59:44;3.30;;;2.20;;
77602;SDS011;66771;52.434;17.056;2023-03-25T10:11:05;3.70;;;1.90;;
77602;SDS011;66771;52.434;17.056;2023-03-25T10:21:54;3.60;;;2.00;;
77602;SDS011;66771;52.434;17.056;2023-03-25T10:30:12;4.70;;;1.80;;
77602;SDS011;66771;52.434;17.056;2023-03-25T10:32:45;3.20;;;1.50;;
77602;SDS011;66771;52.434;17.056;2023-03-25T10:35:20;5.30;;;1.80;;
77602;SDS011;66771;52.434;17.056;2023-03-25T10:37:53;3.50;;;1.60;;
77602;SDS011;66771;52.434;17.056;2023-03-25T10:40:38;6.10;;;1.90;;
77602;SDS011;66771;52.434;17.056;2023-03-25T10:43:26;4.80;;;1.60;;
77602;SDS011;66771;52.434;17.056;2023-03-25T10:48:44;5.00;;;1.70;;
77602;SDS011;66771;52.434;17.056;2023-03-25T10:51:13;4.00;;;1.70;;
77602;SDS011;66771;52.434;17.056;2023-03-25T10:53:45;5.50;;;1.90;;
77602;SDS011;66771;52.434;17.056;2023-03-25T10:56:23;5.00;;;2.50;;
77602;SDS011;66771;52.434;17.056;2023-03-25T10:58:56;4.10;;;1.70;;
77602;SDS011;66771;52.434;17.056;2023-03-25T11:01:30;6.00;;;2.20;;
77602;SDS011;66771;52.434;17.056;2023-03-25T11:04:02;4.90;;;2.00;;
77602;SDS011;66771;52.434;17.056;2023-03-25T11:06:33;4.40;;;1.60;;
77602;SDS011;66771;52.434;17.056;2023-03-25T11:11:39;6.00;;;1.80;;
77602;SDS011;66771;52.434;17.056;2023-03-25T11:14:07;3.90;;;1.40;;
77602;SDS011;66771;52.434;17.056;2023-03-25T11:16:35;1.90;;;1.20;;
77602;SDS011;66771;52.434;17.056;2023-03-25T11:19:12;2.80;;;1.30;;
77602;SDS011;66771;52.434;17.056;2023-03-25T11:21:45;2.90;;;1.40;;
77602;SDS011;66771;52.434;17.056;2023-03-25T11:24:14;1.90;;;1.30;;
77602;SDS011;66771;52.434;17.056;2023-03-25T11:26:45;2.50;;;1.10;;
77602;SDS011;66771;52.434;17.056;2023-03-25T11:29:17;1.90;;;1.10;;
77602;SDS011;66771;52.434;17.056;2023-03-25T11:31:54;4.80;;;1.20;;
77602;SDS011;66771;52.434;17.056;2023-03-25T11:34:23;1.20;;;1.00;;
77602;SDS011;66771;52.434;17.056;2023-03-25T11:36:52;2.60;;;1.10;;
77602;SDS011;66771;52.434;17.056;2023-03-25T11:39:33;2.30;;;1.20;;
77602;SDS011;66771;52.434;17.056;2023-03-25T11:42:11;1.80;;;1.30;;
77602;SDS011;66771;52.434;17.056;2023-03-25T11:44:39;3.70;;;1.30;;
77602;SDS011;66771;52.434;17.056;2023-03-25T11:47:07;2.70;;;1.60;;
77602;SDS011;66771;52.434;17.056;2023-03-25T11:49:36;2.90;;;1.20;;
77602;SDS011;66771;52.434;17.056;2023-03-25T11:54:59;3.10;;;1.00;;
77602;SDS011;66771;52.434;17.056;2023-03-25T11:57:28;1.70;;;1.10;;
77602;SDS011;66771;52.434;17.056;2023-03-25T12:00:09;1.30;;;1.00;;
77602;SDS011;66771;52.434;17.056;2023-03-25T12:02:43;2.40;;;1.30;;
77602;SDS011;66771;52.434;17.056;2023-03-25T12:05:12;1.70;;;1.10;;
77602;SDS011;66771;52.434;17.056;2023-03-25T12:07:44;2.40;;;1.00;;
77602;SDS011;66771;52.434;17.056;2023-03-25T12:10:18;1.60;;;0.90;;
77602;SDS011;66771;52.434;17.056;2023-03-25T12:39:38;3.80;;;1.30;;
77602;SDS011;66771;52.434;17.056;2023-03-25T12:44:50;3.00;;;1.40;;
77602;SDS011;66771;52.434;17.056;2023-03-25T12:47:54;3.10;;;1.50;;
77602;SDS011;66771;52.434;17.056;2023-03-25T12:50:50;2.70;;;1.60;;
77602;SDS011;66771;52.434;17.056;2023-03-25T12:53:34;2.10;;;1.20;;
77602;SDS011;66771;52.434;17.056;2023-03-25T12:56:25;4.70;;;1.50;;
77602;SDS011;66771;52.434;17.056;2023-03-25T12:59:15;4.20;;;1.80;;
77602;SDS011;66771;52.434;17.056;2023-03-25T13:07:03;3.20;;;1.70;;
77602;SDS011;66771;52.434;17.056;2023-03-25T13:09:40;2.90;;;1.80;;
77602;SDS011;66771;52.434;17.056;2023-03-25T13:12:37;4.80;;;2.10;;
77602;SDS011;66771;52.434;17.056;2023-03-25T13:15:20;3.00;;;1.60;;
77602;SDS011;66771;52.434;17.056;2023-03-25T13:17:53;2.10;;;1.40;;
77602;SDS011;66771;52.434;17.056;2023-03-25T13:20:23;2.70;;;1.70;;
77602;SDS011;66771;52.434;17.056;2023-03-25T13:22:58;3.00;;;1.40;;
77602;SDS011;66771;52.434;17.056;2023-03-25T13:28:15;3.80;;;1.40;;
77602;SDS011;66771;52.434;17.056;2023-03-25T13:30:49;2.20;;;1.10;;
77602;SDS011;66771;52.434;17.056;2023-03-25T13:33:22;1.70;;;1.10;;
77602;SDS011;66771;52.434;17.056;2023-03-25T13:35:54;2.30;;;1.00;;
77602;SDS011;66771;52.434;17.056;2023-03-25T13:38:28;1.70;;;0.90;;
77602;SDS011;66771;52.434;17.056;2023-03-25T13:49:11;3.30;;;1.70;;
77602;SDS011;66771;52.434;17.056;2023-03-25T13:51:44;3.50;;;1.40;;
77602;SDS011;66771;52.434;17.056;2023-03-25T14:11:41;2.10;;;1.30;;
77602;SDS011;66771;52.434;17.056;2023-03-25T14:14:11;3.10;;;0.80;;
77602;SDS011;66771;52.434;17.056;2023-03-25T14:16:46;0.90;;;0.70;;
77602;SDS011;66771;52.434;17.056;2023-03-25T14:19:19;1.50;;;0.70;;
77602;SDS011;66771;52.434;17.056;2023-03-25T14:21:53;1.10;;;1.00;;
77602;SDS011;66771;52.434;17.056;2023-03-25T14:24:32;3.10;;;1.20;;
77602;SDS011;66771;52.434;17.056;2023-03-25T14:27:45;1.60;;;1.10;;
77602;SDS011;66771;52.434;17.056;2023-03-25T14:29:59;2.10;;;1.20;;
77602;SDS011;66771;52.434;17.056;2023-03-25T14:32:34;1.40;;;1.00;;
77602;SDS011;66771;52.434;17.056;2023-03-25T14:46:04;3.90;;;1.70;;
77602;SDS011;66771;52.434;17.056;2023-03-25T14:48:44;4.00;;;1.80;;
77602;SDS011;66771;52.434;17.056;2023-03-25T14:56:40;1.80;;;1.60;;
77602;SDS011;66771;52.434;17.056;2023-03-25T14:59:14;2.20;;;1.70;;
77602;SDS011;66771;52.434;17.056;2023-03-25T15:01:44;2.60;;;1.90;;
77602;SDS011;66771;52.434;17.056;2023-03-25T15:04:13;2.50;;;1.40;;
77602;SDS011;66771;52.434;17.056;2023-03-25T15:06:50;3.90;;;1.60;;
77602;SDS011;66771;52.434;17.056;2023-03-25T15:09:17;2.40;;;1.50;;
77602;SDS011;66771;52.434;17.056;2023-03-25T15:11:55;2.80;;;1.50;;
77602;SDS011;66771;52.434;17.056;2023-03-25T15:14:35;3.80;;;1.40;;
77602;SDS011;66771;52.434;17.056;2023-03-25T15:17:06;6.40;;;3.60;;
77602;SDS011;66771;52.434;17.056;2023-03-25T15:22:27;2.70;;;1.50;;
77602;SDS011;66771;52.434;17.056;2023-03-25T15:24:55;2.10;;;1.60;;
77602;SDS011;66771;52.434;17.056;2023-03-25T15:33:11;3.00;;;1.60;;
77602;SDS011;66771;52.434;17.056;2023-03-25T15:38:48;4.00;;;1.80;;
77602;SDS011;66771;52.434;17.056;2023-03-25T15:55:44;6.70;;;2.70;;
77602;SDS011;66771;52.434;17.056;2023-03-25T15:58:13;5.00;;;2.60;;
77602;SDS011;66771;52.434;17.056;2023-03-25T16:01:01;4.20;;;2.20;;
77602;SDS011;66771;52.434;17.056;2023-03-25T16:03:37;5.30;;;2.40;;
77602;SDS011;66771;52.434;17.056;2023-03-25T16:06:05;3.70;;;2.50;;
77602;SDS011;66771;52.434;17.056;2023-03-25T16:08:35;5.20;;;3.20;;
77602;SDS011;66771;52.434;17.056;2023-03-25T16:11:15;4.80;;;2.80;;
77602;SDS011;66771;52.434;17.056;2023-03-25T16:14:01;3.50;;;2.40;;
77602;SDS011;66771;52.434;17.056;2023-03-25T16:16:45;4.60;;;2.80;;
77602;SDS011;66771;52.434;17.056;2023-03-25T16:19:17;5.40;;;3.40;;
77602;SDS011;66771;52.434;17.056;2023-03-25T16:21:55;6.30;;;2.80;;
77602;SDS011;66771;52.434;17.056;2023-03-25T16:24:27;6.10;;;3.70;;
77602;SDS011;66771;52.434;17.056;2023-03-25T16:27:09;5.70;;;2.90;;
77602;SDS011;66771;52.434;17.056;2023-03-25T16:29:38;4.90;;;3.30;;
77602;SDS011;66771;52.434;17.056;2023-03-25T16:32:05;7.40;;;3.80;;
77602;SDS011;66771;52.434;17.056;2023-03-25T16:34:36;5.00;;;3.20;;
77602;SDS011;66771;52.434;17.056;2023-03-25T16:37:06;5.40;;;2.80;;
77602;SDS011;66771;52.434;17.056;2023-03-25T16:39:34;4.80;;;2.50;;
77602;SDS011;66771;52.434;17.056;2023-03-25T16:42:24;5.50;;;3.10;;
77602;SDS011;66771;52.434;17.056;2023-03-25T16:44:52;4.40;;;2.90;;
77602;SDS011;66771;52.434;17.056;2023-03-25T16:47:20;5.20;;;2.70;;
77602;SDS011;66771;52.434;17.056;2023-03-25T16:49:48;6.10;;;2.80;;
77602;SDS011;66771;52.434;17.056;2023-03-25T16:52:21;3.90;;;2.10;;
77602;SDS011;66771;52.434;17.056;2023-03-25T16:57:23;2.20;;;1.90;;
77602;SDS011;66771;52.434;17.056;2023-03-25T16:59:53;3.30;;;2.00;;
77602;SDS011;66771;52.434;17.056;2023-03-25T17:02:23;5.40;;;2.10;;
77602;SDS011;66771;52.434;17.056;2023-03-25T17:04:52;5.70;;;2.80;;
77602;SDS011;66771;52.434;17.056;2023-03-25T17:07:25;3.20;;;2.30;;
77602;SDS011;66771;52.434;17.056;2023-03-25T17:09:55;5.10;;;2.90;;
77602;SDS011;66771;52.434;17.056;2023-03-25T17:12:25;6.00;;;2.60;;
77602;SDS011;66771;52.434;17.056;2023-03-25T17:14:59;5.20;;;2.50;;
77602;SDS011;66771;52.434;17.056;2023-03-25T17:17:43;4.30;;;2.20;;
77602;SDS011;66771;52.434;17.056;2023-03-25T17:20:21;3.50;;;2.20;;
77602;SDS011;66771;52.434;17.056;2023-03-25T17:22:55;3.90;;;2.00;;
77602;SDS011;66771;52.434;17.056;2023-03-25T17:27:55;4.90;;;2.70;;
77602;SDS011;66771;52.434;17.056;2023-03-25T17:32:54;4.20;;;2.30;;
77602;SDS011;66771;52.434;17.056;2023-03-25T17:35:59;6.00;;;2.70;;
77602;SDS011;66771;52.434;17.056;2023-03-25T17:38:33;5.30;;;2.90;;
77602;SDS011;66771;52.434;17.056;2023-03-25T17:41:07;6.70;;;3.10;;
77602;SDS011;66771;52.434;17.056;2023-03-25T17:43:39;5.40;;;3.10;;
77602;SDS011;66771;52.434;17.056;2023-03-25T17:46:24;5.20;;;3.10;;
77602;SDS011;66771;52.434;17.056;2023-03-25T17:48:53;3.90;;;2.60;;
77602;SDS011;66771;52.434;17.056;2023-03-25T17:51:26;3.90;;;2.40;;
77602;SDS011;66771;52.434;17.056;2023-03-25T17:53:56;3.60;;;2.00;;
77602;SDS011;66771;52.434;17.056;2023-03-25T17:56:24;3.80;;;2.60;;
77602;SDS011;66771;52.434;17.056;2023-03-25T17:58:55;4.00;;;2.30;;
77602;SDS011;66771;52.434;17.056;2023-03-25T18:01:26;4.50;;;2.50;;
77602;SDS011;66771;52.434;17.056;2023-03-25T18:03:54;4.00;;;2.40;;
77602;SDS011;66771;52.434;17.056;2023-03-25T18:06:21;3.70;;;2.10;;
77602;SDS011;66771;52.434;17.056;2023-03-25T18:08:49;6.50;;;2.90;;
77602;SDS011;66771;52.434;17.056;2023-03-25T18:11:16;4.50;;;2.60;;
77602;SDS011;66771;52.434;17.056;2023-03-25T18:13:43;3.90;;;2.20;;
77602;SDS011;66771;52.434;17.056;2023-03-25T18:16:14;5.60;;;2.10;;
77602;SDS011;66771;52.434;17.056;2023-03-25T18:18:42;4.10;;;2.20;;